Terminal Aerodrome Forecast
Issued by NWS Omaha/Valley, NE

Home | Current Version | Previous Version | Text Only | Print | Product List | Glossary On
Versions: 1 2 3 4 5 6 7 8 9 10 11 12 13 14 15 16 17 18 19 20 21 22 23 24 25 26 27 28 29 30 31 32 33 34 35 36
000
FTUS43 KOAX 182320
TAFLNK
TAF
KLNK 182320Z 1900/1924 19010KT P6SM SKC
     FM190700 18006KT 5SM BR OVC090
     FM191100 16006KT 4SM BR OVC015
     FM191400 16006KT 3SM BR BKN008
     FM191900 15005KT P6SM OVC008=

USA.gov is the U.S. government's official web portal to all federal, state and local government web resources and services.